sensor_id;sensor_type;location;lat;lon;timestamp;pressure;altitude;pressure_sealevel;temperature;humidity
65276;BME280;51875;49.994;14.052;2024-03-17T00:00:45;98962.81;;;3.28;100.00
65276;BME280;51875;49.994;14.052;2024-03-17T00:02:03;98965.31;;;3.20;100.00
65276;BME280;51875;49.994;14.052;2024-03-17T00:03:26;98967.19;;;3.35;100.00
65276;BME280;51875;49.994;14.052;2024-03-17T00:04:42;98965.38;;;3.26;100.00
65276;BME280;51875;49.994;14.052;2024-03-17T00:06:00;98977.50;;;3.32;100.00
65276;BME280;51875;49.994;14.052;2024-03-17T00:07:20;98974.88;;;3.27;100.00
65276;BME280;51875;49.994;14.052;2024-03-17T00:08:37;98974.63;;;3.02;100.00
65276;BME280;51875;49.994;14.052;2024-03-17T00:09:53;98971.09;;;2.97;100.00
65276;BME280;51875;49.994;14.052;2024-03-17T00:11:16;98966.72;;;2.91;100.00
65276;BME280;51875;49.994;14.052;2024-03-17T00:32:34;98977.44;;;2.48;100.00
65276;BME280;51875;49.994;14.052;2024-03-17T00:33:53;98976.34;;;2.32;100.00
65276;BME280;51875;49.994;14.052;2024-03-17T00:35:10;98973.94;;;2.45;100.00
65276;BME280;51875;49.994;14.052;2024-03-17T00:36:30;98968.13;;;2.63;100.00
65276;BME280;51875;49.994;14.052;2024-03-17T00:37:49;98975.25;;;2.81;100.00
65276;BME280;51875;49.994;14.052;2024-03-17T00:39:05;98980.16;;;2.59;100.00
65276;BME280;51875;49.994;14.052;2024-03-17T00:40:24;98974.16;;;2.63;100.00
65276;BME280;51875;49.994;14.052;2024-03-17T00:41:44;98978.75;;;2.86;100.00
65276;BME280;51875;49.994;14.052;2024-03-17T00:43:00;98978.34;;;2.52;100.00
65276;BME280;51875;49.994;14.052;2024-03-17T00:44:16;98977.03;;;2.85;100.00
65276;BME280;51875;49.994;14.052;2024-03-17T00:45:32;98981.44;;;2.94;100.00
65276;BME280;51875;49.994;14.052;2024-03-17T00:48:14;98980.47;;;2.19;100.00
65276;BME280;51875;49.994;14.052;2024-03-17T00:49:30;98986.03;;;2.49;100.00
65276;BME280;51875;49.994;14.052;2024-03-17T00:50:58;98981.53;;;2.35;100.00
65276;BME280;51875;49.994;14.052;2024-03-17T00:52:15;98991.34;;;2.58;100.00
65276;BME280;51875;49.994;14.052;2024-03-17T00:53:31;98994.63;;;2.46;100.00
65276;BME280;51875;49.994;14.052;2024-03-17T00:54:51;98986.69;;;2.32;100.00
65276;BME280;51875;49.994;14.052;2024-03-17T01:10:25;98979.34;;;2.00;100.00
65276;BME280;51875;49.994;14.052;2024-03-17T01:11:41;98972.63;;;2.11;100.00
65276;BME280;51875;49.994;14.052;2024-03-17T01:12:57;98971.00;;;2.18;100.00
65276;BME280;51875;49.994;14.052;2024-03-17T01:24:14;98980.00;;;2.48;100.00
65276;BME280;51875;49.994;14.052;2024-03-17T01:25:32;98980.94;;;2.52;100.00
65276;BME280;51875;49.994;14.052;2024-03-17T01:26:51;98972.09;;;2.37;100.00
65276;BME280;51875;49.994;14.052;2024-03-17T01:28:09;98974.78;;;2.44;100.00
65276;BME280;51875;49.994;14.052;2024-03-17T01:29:25;98974.81;;;2.47;100.00
65276;BME280;51875;49.994;14.052;2024-03-17T01:30:41;98975.50;;;2.32;100.00
65276;BME280;51875;49.994;14.052;2024-03-17T01:31:57;98971.13;;;2.29;100.00
65276;BME280;51875;49.994;14.052;2024-03-17T01:33:14;98971.03;;;2.23;100.00
65276;BME280;51875;49.994;14.052;2024-03-17T01:34:30;98971.88;;;2.20;100.00
65276;BME280;51875;49.994;14.052;2024-03-17T01:35:46;98970.09;;;2.18;100.00
65276;BME280;51875;49.994;14.052;2024-03-17T01:37:02;98969.19;;;2.13;100.00
65276;BME280;51875;49.994;14.052;2024-03-17T01:38:18;98977.91;;;2.21;100.00
65276;BME280;51875;49.994;14.052;2024-03-17T01:39:34;98984.94;;;2.31;100.00
65276;BME280;51875;49.994;14.052;2024-03-17T01:40:54;98981.78;;;1.92;100.00
65276;BME280;51875;49.994;14.052;2024-03-17T01:42:10;98985.53;;;2.11;100.00
65276;BME280;51875;49.994;14.052;2024-03-17T01:43:26;98989.75;;;2.06;100.00
65276;BME280;51875;49.994;14.052;2024-03-17T01:44:44;98985.25;;;1.94;100.00
65276;BME280;51875;49.994;14.052;2024-03-17T01:46:01;98983.69;;;1.50;100.00
65276;BME280;51875;49.994;14.052;2024-03-17T01:47:20;98980.53;;;1.68;100.00
65276;BME280;51875;49.994;14.052;2024-03-17T01:48:40;98978.66;;;1.58;100.00
65276;BME280;51875;49.994;14.052;2024-03-17T01:49:57;98981.34;;;1.66;100.00
65276;BME280;51875;49.994;14.052;2024-03-17T01:51:15;98978.72;;;1.63;100.00
65276;BME280;51875;49.994;14.052;2024-03-17T01:52:38;98984.09;;;1.75;100.00
65276;BME280;51875;49.994;14.052;2024-03-17T01:53:55;98983.56;;;1.96;100.00
65276;BME280;51875;49.994;14.052;2024-03-17T01:55:12;98976.75;;;2.00;100.00
65276;BME280;51875;49.994;14.052;2024-03-17T01:56:28;98976.16;;;2.20;100.00
65276;BME280;51875;49.994;14.052;2024-03-17T01:57:44;98985.63;;;1.62;100.00
65276;BME280;51875;49.994;14.052;2024-03-17T01:59:01;98982.00;;;1.52;100.00
65276;BME280;51875;49.994;14.052;2024-03-17T02:00:17;98982.06;;;1.55;100.00
65276;BME280;51875;49.994;14.052;2024-03-17T02:01:37;98977.94;;;1.65;100.00
65276;BME280;51875;49.994;14.052;2024-03-17T02:02:53;98974.31;;;1.55;100.00
65276;BME280;51875;49.994;14.052;2024-03-17T02:04:09;98978.06;;;1.73;100.00
65276;BME280;51875;49.994;14.052;2024-03-17T02:05:27;98974.25;;;2.06;100.00
65276;BME280;51875;49.994;14.052;2024-03-17T02:06:43;98972.81;;;1.68;100.00
65276;BME280;51875;49.994;14.052;2024-03-17T02:08:00;98980.34;;;1.54;100.00
65276;BME280;51875;49.994;14.052;2024-03-17T02:09:21;98978.84;;;1.69;100.00
65276;BME280;51875;49.994;14.052;2024-03-17T02:26:27;98977.06;;;1.66;100.00
65276;BME280;51875;49.994;14.052;2024-03-17T02:27:43;98977.94;;;1.65;100.00
65276;BME280;51875;49.994;14.052;2024-03-17T02:28:59;98974.13;;;1.45;100.00
65276;BME280;51875;49.994;14.052;2024-03-17T02:30:16;98978.38;;;1.41;100.00
65276;BME280;51875;49.994;14.052;2024-03-17T02:31:32;98972.59;;;1.56;100.00
65276;BME280;51875;49.994;14.052;2024-03-17T02:32:53;98981.69;;;1.34;100.00
65276;BME280;51875;49.994;14.052;2024-03-17T02:34:09;98979.94;;;1.33;100.00
65276;BME280;51875;49.994;14.052;2024-03-17T02:35:25;98987.28;;;1.11;100.00
65276;BME280;51875;49.994;14.052;2024-03-17T02:36:42;98977.25;;;0.80;100.00
65276;BME280;51875;49.994;14.052;2024-03-17T02:38:00;98980.69;;;0.81;100.00
65276;BME280;51875;49.994;14.052;2024-03-17T02:39:17;98981.81;;;0.95;100.00
65276;BME280;51875;49.994;14.052;2024-03-17T02:40:56;98983.84;;;1.10;100.00
65276;BME280;51875;49.994;14.052;2024-03-17T02:42:12;98980.09;;;0.94;100.00
65276;BME280;51875;49.994;14.052;2024-03-17T02:43:31;98978.53;;;1.04;100.00
65276;BME280;51875;49.994;14.052;2024-03-17T02:44:47;98990.84;;;1.18;100.00
65276;BME280;51875;49.994;14.052;2024-03-17T02:46:12;98975.25;;;1.61;100.00
65276;BME280;51875;49.994;14.052;2024-03-17T02:47:29;98974.38;;;1.59;100.00
65276;BME280;51875;49.994;14.052;2024-03-17T02:48:50;98973.41;;;1.53;100.00
65276;BME280;51875;49.994;14.052;2024-03-17T02:50:07;98977.88;;;1.64;100.00
65276;BME280;51875;49.994;14.052;2024-03-17T02:51:25;98980.66;;;1.76;100.00
65276;BME280;51875;49.994;14.052;2024-03-17T02:52:41;98979.81;;;1.77;100.00
65276;BME280;51875;49.994;14.052;2024-03-17T02:53:58;98985.88;;;1.79;100.00
65276;BME280;51875;49.994;14.052;2024-03-17T02:55:15;98982.19;;;1.63;100.00
65276;BME280;51875;49.994;14.052;2024-03-17T02:56:33;98986.03;;;1.38;100.00
65276;BME280;51875;49.994;14.052;2024-03-17T02:57:49;98982.56;;;1.36;100.00
65276;BME280;51875;49.994;14.052;2024-03-17T02:59:05;98986.66;;;1.23;100.00
65276;BME280;51875;49.994;14.052;2024-03-17T03:00:30;98986.38;;;1.07;100.00
65276;BME280;51875;49.994;14.052;2024-03-17T03:01:48;98994.06;;;1.53;100.00
65276;BME280;51875;49.994;14.052;2024-03-17T03:03:04;98989.06;;;1.63;100.00
65276;BME280;51875;49.994;14.052;2024-03-17T03:04:21;98988.13;;;1.59;100.00
65276;BME280;51875;49.994;14.052;2024-03-17T03:05:37;98988.03;;;1.53;100.00
65276;BME280;51875;49.994;14.052;2024-03-17T03:06:56;98988.22;;;1.64;100.00
65276;BME280;51875;49.994;14.052;2024-03-17T03:08:17;98981.97;;;1.51;100.00
65276;BME280;51875;49.994;14.052;2024-03-17T03:09:34;98995.47;;;1.34;100.00
65276;BME280;51875;49.994;14.052;2024-03-17T03:10:51;98989.94;;;1.16;100.00
65276;BME280;51875;49.994;14.052;2024-03-17T03:12:09;98991.16;;;1.35;100.00
65276;BME280;51875;49.994;14.052;2024-03-17T03:13:28;98989.56;;;1.41;100.00
65276;BME280;51875;49.994;14.052;2024-03-17T03:14:47;98992.94;;;1.39;100.00
65276;BME280;51875;49.994;14.052;2024-03-17T03:16:08;98985.31;;;1.45;100.00
65276;BME280;51875;49.994;14.052;2024-03-17T03:17:27;98990.94;;;1.22;100.00
65276;BME280;51875;49.994;14.052;2024-03-17T03:18:43;98986.28;;;1.04;100.00
65276;BME280;51875;49.994;14.052;2024-03-17T03:20:02;98985.38;;;1.01;100.00
65276;BME280;51875;49.994;14.052;2024-03-17T03:21:19;98990.88;;;1.19;100.00
65276;BME280;51875;49.994;14.052;2024-03-17T03:22:37;98994.47;;;1.27;100.00
65276;BME280;51875;49.994;14.052;2024-03-17T03:23:53;98986.88;;;1.35;100.00
65276;BME280;51875;49.994;14.052;2024-03-17T03:25:09;98983.50;;;1.39;100.00
65276;BME280;51875;49.994;14.052;2024-03-17T03:26:31;98979.28;;;1.43;100.00
65276;BME280;51875;49.994;14.052;2024-03-17T03:27:50;98979.28;;;1.43;100.00
65276;BME280;51875;49.994;14.052;2024-03-17T03:33:24;98988.28;;;1.19;100.00
65276;BME280;51875;49.994;14.052;2024-03-17T03:34:40;98986.66;;;1.24;100.00
65276;BME280;51875;49.994;14.052;2024-03-17T03:35:56;98989.94;;;1.16;100.00
65276;BME280;51875;49.994;14.052;2024-03-17T03:37:12;98990.78;;;1.15;100.00
65276;BME280;51875;49.994;14.052;2024-03-17T03:38:34;98990.91;;;1.21;100.00
65276;BME280;51875;49.994;14.052;2024-03-17T03:39:50;98992.50;;;1.14;100.00
65276;BME280;51875;49.994;14.052;2024-03-17T03:41:08;98988.84;;;1.03;100.00
65276;BME280;51875;49.994;14.052;2024-03-17T03:42:30;98983.41;;;0.89;100.00
65276;BME280;51875;49.994;14.052;2024-03-17T03:43:49;98987.84;;;0.53;100.00
65276;BME280;51875;49.994;14.052;2024-03-17T03:45:06;98991.47;;;0.61;100.00
65276;BME280;51875;49.994;14.052;2024-03-17T03:46:22;98984.63;;;0.63;100.00
65276;BME280;51875;49.994;14.052;2024-03-17T03:47:42;98988.28;;;0.33;100.00
65276;BME280;51875;49.994;14.052;2024-03-17T03:49:02;98986.63;;;0.35;100.00
65276;BME280;51875;49.994;14.052;2024-03-17T03:50:22;98977.28;;;0.40;100.00
65276;BME280;51875;49.994;14.052;2024-03-17T03:51:41;98975.75;;;0.10;100.00
65276;BME280;51875;49.994;14.052;2024-03-17T03:52:57;98984.09;;;-0.02;100.00
65276;BME280;51875;49.994;14.052;2024-03-17T03:54:13;98981.78;;;0.11;100.00
65276;BME280;51875;49.994;14.052;2024-03-17T03:55:29;98978.50;;;0.17;100.00
65276;BME280;51875;49.994;14.052;2024-03-17T03:56:48;98983.69;;;0.60;100.00
65276;BME280;51875;49.994;14.052;2024-03-17T03:58:04;98986.75;;;0.41;100.00
65276;BME280;51875;49.994;14.052;2024-03-17T03:59:21;98990.66;;;0.64;100.00
65276;BME280;51875;49.994;14.052;2024-03-17T04:00:37;98981.28;;;0.67;100.00
65276;BME280;51875;49.994;14.052;2024-03-17T04:01:55;98983.78;;;0.64;100.00
65276;BME280;51875;49.994;14.052;2024-03-17T04:03:11;98982.09;;;0.66;100.00
65276;BME280;51875;49.994;14.052;2024-03-17T04:04:27;98977.84;;;0.68;100.00
65276;BME280;51875;49.994;14.052;2024-03-17T04:05:47;98985.44;;;0.61;100.00
65276;BME280;51875;49.994;14.052;2024-03-17T04:07:03;98978.84;;;0.74;100.00
65276;BME280;51875;49.994;14.052;2024-03-17T04:15:22;98980.84;;;0.46;100.00
65276;BME280;51875;49.994;14.052;2024-03-17T04:16:38;98984.09;;;0.38;100.00
65276;BME280;51875;49.994;14.052;2024-03-17T04:17:54;98984.38;;;0.51;100.00
65276;BME280;51875;49.994;14.052;2024-03-17T04:19:10;98979.84;;;0.40;100.00
65276;BME280;51875;49.994;14.052;2024-03-17T04:20:31;98985.56;;;0.25;100.00
65276;BME280;51875;49.994;14.052;2024-03-17T04:21:50;98984.16;;;0.40;100.00
65276;BME280;51875;49.994;14.052;2024-03-17T04:41:47;98985.72;;;0.35;100.00
65276;BME280;51875;49.994;14.052;2024-03-17T04:43:03;98983.47;;;0.10;100.00
65276;BME280;51875;49.994;14.052;2024-03-17T04:44:20;98989.81;;;0.25;100.00
65276;BME280;51875;49.994;14.052;2024-03-17T04:45:36;98983.00;;;0.27;100.00
65276;BME280;51875;49.994;14.052;2024-03-17T04:46:54;98988.22;;;0.30;100.00
65276;BME280;51875;49.994;14.052;2024-03-17T04:48:10;98989.25;;;0.37;100.00
65276;BME280;51875;49.994;14.052;2024-03-17T04:49:26;98989.91;;;0.28;100.00
65276;BME280;51875;49.994;14.052;2024-03-17T04:50:45;98993.28;;;0.25;100.00
65276;BME280;51875;49.994;14.052;2024-03-17T04:52:01;98995.31;;;0.40;100.00
65276;BME280;51875;49.994;14.052;2024-03-17T04:53:18;98995.31;;;0.40;100.00
65276;BME280;51875;49.994;14.052;2024-03-17T04:54:34;98993.44;;;0.33;100.00
65276;BME280;51875;49.994;14.052;2024-03-17T04:56:00;98992.19;;;0.16;100.00
65276;BME280;51875;49.994;14.052;2024-03-17T04:57:18;98999.47;;;-0.05;100.00
65276;BME280;51875;49.994;14.052;2024-03-17T04:58:34;99003.06;;;0.02;100.00
65276;BME280;51875;49.994;14.052;2024-03-17T04:59:50;99002.88;;;-0.06;100.00
65276;BME280;51875;49.994;14.052;2024-03-17T05:01:07;99005.56;;;0.01;100.00
65276;BME280;51875;49.994;14.052;2024-03-17T05:02:26;99009.41;;;0.18;100.00
65276;BME280;51875;49.994;14.052;2024-03-17T05:03:45;99013.84;;;0.24;100.00
65276;BME280;51875;49.994;14.052;2024-03-17T05:05:01;99011.50;;;0.35;100.00
65276;BME280;51875;49.994;14.052;2024-03-17T05:06:18;99009.97;;;0.43;100.00
65276;BME280;51875;49.994;14.052;2024-03-17T05:07:34;99007.34;;;0.40;100.00
65276;BME280;51875;49.994;14.052;2024-03-17T05:08:51;99011.75;;;0.46;100.00
65276;BME280;51875;49.994;14.052;2024-03-17T05:10:07;99009.78;;;0.35;100.00
65276;BME280;51875;49.994;14.052;2024-03-17T05:11:23;99013.22;;;0.34;100.00
65276;BME280;51875;49.994;14.052;2024-03-17T05:12:42;99014.00;;;0.30;100.00
65276;BME280;51875;49.994;14.052;2024-03-17T05:13:58;99015.72;;;0.31;100.00
65276;BME280;51875;49.994;14.052;2024-03-17T05:15:14;99014.00;;;0.30;100.00
65276;BME280;51875;49.994;14.052;2024-03-17T05:16:33;99018.50;;;0.04;100.00
65276;BME280;51875;49.994;14.052;2024-03-17T05:17:53;99021.75;;;-0.05;100.00
65276;BME280;51875;49.994;14.052;2024-03-17T05:19:14;99027.44;;;-0.19;100.00
65276;BME280;51875;49.994;14.052;2024-03-17T05:20:30;99024.91;;;-0.17;100.00
65276;BME280;51875;49.994;14.052;2024-03-17T05:21:46;99027.53;;;-0.14;100.00
65276;BME280;51875;49.994;14.052;2024-03-17T05:23:02;99022.81;;;-0.32;100.00
65276;BME280;51875;49.994;14.052;2024-03-17T05:24:21;99023.63;;;-0.35;100.00
65276;BME280;51875;49.994;14.052;2024-03-17T05:25:37;99020.31;;;0.06;100.00
65276;BME280;51875;49.994;14.052;2024-03-17T05:26:55;99022.47;;;0.26;100.00
65276;BME280;51875;49.994;14.052;2024-03-17T05:28:12;99024.25;;;0.28;100.00
65276;BME280;51875;49.994;14.052;2024-03-17T05:29:28;99024.13;;;0.24;100.00
65276;BME280;51875;49.994;14.052;2024-03-17T05:30:44;99023.97;;;0.16;100.00
65276;BME280;51875;49.994;14.052;2024-03-17T05:32:00;99025.34;;;0.02;100.00
65276;BME280;51875;49.994;14.052;2024-03-17T05:33:21;99016.81;;;-0.33;100.00
65276;BME280;51875;49.994;14.052;2024-03-17T05:34:40;99017.97;;;-0.53;100.00
65276;BME280;51875;49.994;14.052;2024-03-17T05:35:58;99013.53;;;-0.25;100.00
65276;BME280;51875;49.994;14.052;2024-03-17T05:37:14;99023.56;;;-0.01;100.00
65276;BME280;51875;49.994;14.052;2024-03-17T05:38:31;99021.38;;;0.15;100.00
65276;BME280;51875;49.994;14.052;2024-03-17T06:29:14;99070.31;;;0.94;100.00
65276;BME280;51875;49.994;14.052;2024-03-17T06:30:30;99067.06;;;1.02;100.00
65276;BME280;51875;49.994;14.052;2024-03-17T06:31:48;99068.94;;;1.10;100.00
65276;BME280;51875;49.994;14.052;2024-03-17T06:33:05;99070.53;;;1.04;100.00
65276;BME280;51875;49.994;14.052;2024-03-17T06:34:21;99072.66;;;1.25;100.00
65276;BME280;51875;49.994;14.052;2024-03-17T06:35:37;99063.88;;;1.15;100.00
65276;BME280;51875;49.994;14.052;2024-03-17T06:36:53;99071.06;;;1.32;100.00
65276;BME280;51875;49.994;14.052;2024-03-17T06:38:09;99070.31;;;0.93;100.00
65276;BME280;51875;49.994;14.052;2024-03-17T06:39:26;99069.31;;;0.86;100.00
65276;BME280;51875;49.994;14.052;2024-03-17T06:40:48;99071.16;;;0.92;100.00
65276;BME280;51875;49.994;14.052;2024-03-17T06:42:04;99076.03;;;1.22;100.00
65276;BME280;51875;49.994;14.052;2024-03-17T06:43:20;99077.41;;;1.05;100.00
65276;BME280;51875;49.994;14.052;2024-03-17T06:44:36;99080.78;;;1.01;100.00
65276;BME280;51875;49.994;14.052;2024-03-17T06:45:59;99087.94;;;1.14;100.00
65276;BME280;51875;49.994;14.052;2024-03-17T06:47:15;99084.78;;;1.27;100.00
65276;BME280;51875;49.994;14.052;2024-03-17T06:48:31;99091.03;;;1.40;100.00
65276;BME280;51875;49.994;14.052;2024-03-17T06:49:48;99087.66;;;1.43;100.00
65276;BME280;51875;49.994;14.052;2024-03-17T06:51:04;99083.63;;;1.58;100.00
65276;BME280;51875;49.994;14.052;2024-03-17T06:52:21;99082.03;;;1.66;100.00
65276;BME280;51875;49.994;14.052;2024-03-17T06:53:37;99080.94;;;1.53;100.00
65276;BME280;51875;49.994;14.052;2024-03-17T06:54:54;99087.22;;;1.67;100.00
65276;BME280;51875;49.994;14.052;2024-03-17T06:56:10;99085.81;;;1.83;100.00
65276;BME280;51875;49.994;14.052;2024-03-17T06:57:26;99081.88;;;1.57;100.00
65276;BME280;51875;49.994;14.052;2024-03-17T06:58:42;99088.22;;;1.74;100.00
65276;BME280;51875;49.994;14.052;2024-03-17T06:59:58;99090.97;;;1.83;100.00
65276;BME280;51875;49.994;14.052;2024-03-17T07:01:14;99084.06;;;1.82;100.00
65276;BME280;51875;49.994;14.052;2024-03-17T07:02:30;99088.66;;;1.99;100.00
65276;BME280;51875;49.994;14.052;2024-03-17T07:03:46;99091.25;;;2.01;100.00
65276;BME280;51875;49.994;14.052;2024-03-17T07:05:02;99090.84;;;1.77;100.00
65276;BME280;51875;49.994;14.052;2024-03-17T07:06:18;99094.88;;;1.61;100.00
65276;BME280;51875;49.994;14.052;2024-03-17T07:07:34;99092.63;;;1.80;100.00
65276;BME280;51875;49.994;14.052;2024-03-17T07:08:50;99089.59;;;2.04;100.00
65276;BME280;51875;49.994;14.052;2024-03-17T07:10:06;99087.03;;;2.06;100.00
65276;BME280;51875;49.994;14.052;2024-03-17T07:11:24;99086.41;;;2.19;100.00
65276;BME280;51875;49.994;14.052;2024-03-17T07:12:41;99090.50;;;2.08;100.00
65276;BME280;51875;49.994;14.052;2024-03-17T07:13:57;99085.78;;;2.36;100.00
65276;BME280;51875;49.994;14.052;2024-03-17T07:15:13;99095.31;;;2.38;100.00
65276;BME280;51875;49.994;14.052;2024-03-17T07:16:29;99083.50;;;2.56;100.00
65276;BME280;51875;49.994;14.052;2024-03-17T07:17:50;99089.41;;;2.47;100.00
65276;BME280;51875;49.994;14.052;2024-03-17T07:19:06;99084.38;;;2.55;100.00
65276;BME280;51875;49.994;14.052;2024-03-17T07:20:24;99091.78;;;2.33;100.00
65276;BME280;51875;49.994;14.052;2024-03-17T07:21:40;99087.59;;;2.42;100.00
65276;BME280;51875;49.994;14.052;2024-03-17T07:22:56;99089.50;;;2.53;100.00
65276;BME280;51875;49.994;14.052;2024-03-17T07:24:12;99090.50;;;2.63;100.00
65276;BME280;51875;49.994;14.052;2024-03-17T07:25:28;99083.94;;;2.87;100.00
65276;BME280;51875;49.994;14.052;2024-03-17T07:26:43;99086.56;;;2.90;100.00
65276;BME280;51875;49.994;14.052;2024-03-17T07:27:59;99095.13;;;2.86;100.00
65276;BME280;51875;49.994;14.052;2024-03-17T07:29:16;99098.50;;;2.80;100.00
65276;BME280;51875;49.994;14.052;2024-03-17T07:30:35;99096.91;;;2.90;100.00
65276;BME280;51875;49.994;14.052;2024-03-17T07:31:51;99098.13;;;3.17;100.00
65276;BME280;51875;49.994;14.052;2024-03-17T07:33:07;99089.47;;;3.15;100.00
65276;BME280;51875;49.994;14.052;2024-03-17T07:34:23;99094.41;;;2.98;100.00
65276;BME280;51875;49.994;14.052;2024-03-17T07:35:47;99092.94;;;3.16;100.00
65276;BME280;51875;49.994;14.052;2024-03-17T07:37:03;99095.75;;;3.34;100.00
65276;BME280;51875;49.994;14.052;2024-03-17T07:38:19;99095.84;;;3.44;100.00
65276;BME280;51875;49.994;14.052;2024-03-17T07:39:35;99097.56;;;3.43;100.00
65276;BME280;51875;49.994;14.052;2024-03-17T07:41:00;99095.34;;;3.77;100.00
65276;BME280;51875;49.994;14.052;2024-03-17T07:42:17;99094.28;;;3.58;100.00
65276;BME280;51875;49.994;14.052;2024-03-17T07:43:35;99091.81;;;3.69;100.00
65276;BME280;51875;49.994;14.052;2024-03-17T07:44:51;99095.88;;;3.47;100.00
65276;BME280;51875;49.994;14.052;2024-03-17T07:46:11;99090.19;;;3.77;100.00
65276;BME280;51875;49.994;14.052;2024-03-17T07:47:28;99096.91;;;3.63;100.00
65276;BME280;51875;49.994;14.052;2024-03-17T07:48:51;99098.69;;;3.67;100.00
65276;BME280;51875;49.994;14.052;2024-03-17T07:50:07;99093.78;;;3.92;100.00
65276;BME280;51875;49.994;14.052;2024-03-17T07:51:23;99093.84;;;4.03;100.00
65276;BME280;51875;49.994;14.052;2024-03-17T07:52:40;99088.66;;;4.01;100.00
65276;BME280;51875;49.994;14.052;2024-03-17T07:53:56;99087.06;;;4.17;100.00
65276;BME280;51875;49.994;14.052;2024-03-17T07:55:12;99081.22;;;4.40;100.00
65276;BME280;51875;49.994;14.052;2024-03-17T07:56:28;99083.69;;;4.29;100.00
65276;BME280;51875;49.994;14.052;2024-03-17T07:57:45;99089.66;;;4.14;100.00
65276;BME280;51875;49.994;14.052;2024-03-17T07:59:01;99092.34;;;4.28;100.00
65276;BME280;51875;49.994;14.052;2024-03-17T08:00:20;99082.94;;;4.43;100.00
65276;BME280;51875;49.994;14.052;2024-03-17T08:01:38;99080.44;;;4.58;100.00
65276;BME280;51875;49.994;14.052;2024-03-17T08:02:54;99084.94;;;4.86;100.00
65276;BME280;51875;49.994;14.052;2024-03-17T08:04:11;99087.69;;;5.11;100.00
65276;BME280;51875;49.994;14.052;2024-03-17T08:05:27;99085.16;;;5.26;100.00
65276;BME280;51875;49.994;14.052;2024-03-17T08:06:43;99088.59;;;5.23;100.00
65276;BME280;51875;49.994;14.052;2024-03-17T08:08:00;99078.22;;;5.27;100.00
65276;BME280;51875;49.994;14.052;2024-03-17T08:09:16;99072.97;;;5.11;100.00
65276;BME280;51875;49.994;14.052;2024-03-17T08:10:37;99088.69;;;5.45;100.00
65276;BME280;51875;49.994;14.052;2024-03-17T08:11:56;99080.88;;;5.48;100.00
65276;BME280;51875;49.994;14.052;2024-03-17T08:13:18;99084.38;;;5.52;100.00
65276;BME280;51875;49.994;14.052;2024-03-17T08:14:35;99081.78;;;5.64;100.00
65276;BME280;51875;49.994;14.052;2024-03-17T08:16:04;99086.09;;;5.51;100.00
65276;BME280;51875;49.994;14.052;2024-03-17T08:17:24;99080.06;;;5.70;100.00
65276;BME280;51875;49.994;14.052;2024-03-17T08:18:41;99083.56;;;5.84;100.00
65276;BME280;51875;49.994;14.052;2024-03-17T08:19:57;99080.94;;;5.64;100.00
65276;BME280;51875;49.994;14.052;2024-03-17T08:21:13;99079.25;;;5.94;100.00
65276;BME280;51875;49.994;14.052;2024-03-17T08:22:32;99077.50;;;5.84;100.00
65276;BME280;51875;49.994;14.052;2024-03-17T08:23:48;99074.88;;;5.79;100.00
65276;BME280;51875;49.994;14.052;2024-03-17T08:25:04;99065.38;;;5.89;100.00
65276;BME280;51875;49.994;14.052;2024-03-17T08:26:20;99071.44;;;5.97;100.00
65276;BME280;51875;49.994;14.052;2024-03-17T08:27:36;99076.66;;;5.94;100.00
65276;BME280;51875;49.994;14.052;2024-03-17T08:28:52;99068.88;;;6.10;100.00
65276;BME280;51875;49.994;14.052;2024-03-17T08:30:09;99072.34;;;6.08;100.00
65276;BME280;51875;49.994;14.052;2024-03-17T08:31:29;99074.09;;;6.27;100.00
65276;BME280;51875;49.994;14.052;2024-03-17T08:32:46;99064.53;;;6.41;100.00
65276;BME280;51875;49.994;14.052;2024-03-17T08:34:05;99065.41;;;6.42;100.00
65276;BME280;51875;49.994;14.052;2024-03-17T08:35:21;99066.28;;;6.44;100.00
65276;BME280;51875;49.994;14.052;2024-03-17T08:36:37;99062.78;;;6.65;100.00
65276;BME280;51875;49.994;14.052;2024-03-17T08:37:54;99059.31;;;6.58;100.00
65276;BME280;51875;49.994;14.052;2024-03-17T08:39:14;99061.84;;;6.88;100.00
65276;BME280;51875;49.994;14.052;2024-03-17T08:41:56;99054.97;;;6.68;100.00
65276;BME280;51875;49.994;14.052;2024-03-17T08:43:12;99055.69;;;7.11;100.00
65276;BME280;51875;49.994;14.052;2024-03-17T08:44:28;99056.50;;;7.27;100.00
65276;BME280;51875;49.994;14.052;2024-03-17T08:45:45;99054.78;;;7.24;100.00
65276;BME280;51875;49.994;14.052;2024-03-17T08:47:03;99049.56;;;7.23;100.00
65276;BME280;51875;49.994;14.052;2024-03-17T08:48:19;99046.91;;;7.37;100.00
65276;BME280;51875;49.994;14.052;2024-03-17T08:49:39;99042.53;;;7.43;100.00
65276;BME280;51875;49.994;14.052;2024-03-17T08:50:56;99036.31;;;7.68;100.00
65276;BME280;51875;49.994;14.052;2024-03-17T08:52:12;99046.72;;;7.66;100.00
65276;BME280;51875;49.994;14.052;2024-03-17T08:53:31;99033.59;;;7.85;100.00
65276;BME280;51875;49.994;14.052;2024-03-17T08:54:47;99036.16;;;7.86;100.00
65276;BME280;51875;49.994;14.052;2024-03-17T08:56:06;99037.75;;;8.03;100.00
65276;BME280;51875;49.994;14.052;2024-03-17T09:01:29;99030.69;;;8.20;100.00
65276;BME280;51875;49.994;14.052;2024-03-17T09:02:47;99031.78;;;7.90;100.00
65276;BME280;51875;49.994;14.052;2024-03-17T09:04:04;99030.81;;;8.02;100.00
65276;BME280;51875;49.994;14.052;2024-03-17T09:05:20;99026.19;;;8.38;100.00
65276;BME280;51875;49.994;14.052;2024-03-17T09:06:42;99030.47;;;8.44;100.00
65276;BME280;51875;49.994;14.052;2024-03-17T09:45:09;99001.59;;;8.62;90.76
65276;BME280;51875;49.994;14.052;2024-03-17T09:46:28;99004.75;;;8.91;100.00
65276;BME280;51875;49.994;14.052;2024-03-17T09:47:45;99003.00;;;8.95;98.37
65276;BME280;51875;49.994;14.052;2024-03-17T09:49:01;99005.97;;;8.62;92.00